»·PEaware :: N45XS KSNA-KLAS

N45XS :: KSNA-KLAS

FLIGHT INFORMATION

Flight Status: Arrived
Operator: Privately registered:
United States
More flights under this callsign
Pilot: Anthony R. (29179)
Aircraft: BEECH AIRCRAFT BARON
(BE58)
More flights by this aircraft type
Origin: KSNA John Wayne-Orange Co
United States
Destination: KLAS McCarran Intl
United States
More flights between these airports :: More routes between these airports
Route: +ANAHM1 HEC CRESO4
File this flight plan on PilotEdge
Remarks:
Altitude:
(Current/Filed)
11,000ft
Speed:
(Current/Filed)
150kts
Departed: 21-May-20 03:52 PM
Arrived: 21-May-20 05:23 PM
Distance/Time
Traveled:
197nm/1:31
Distance/Time
To Go:
Arrived

Flight Plot

Page will automatically refresh every two minutes.


Map Options




Map Legend


Flown Route
Filed Route
Departure Airport
Arrival Airport
Navaid (VOR, NDB)
Fix

Horizontal Profiles

Position Reports

Time Latitude Longitude Heading Altitude Ground
Speed
21-May-20 15:01 33.675427 -117.871342 40 60ft 0kts
21-May-20 15:03 36.088584 -115.153926 0 2099ft 0kts
21-May-20 15:08 33.675427 -117.871342 40 60ft 0kts
21-May-20 15:09 33.675427 -117.871342 40 60ft 0kts
21-May-20 15:10 33.675427 -117.871342 40 60ft 0kts
21-May-20 15:11 33.675427 -117.871342 40 60ft 0kts
21-May-20 15:12 33.675427 -117.871342 40 60ft 0kts
21-May-20 15:13 33.675427 -117.871342 40 60ft 0kts
21-May-20 15:14 33.675427 -117.871342 40 60ft 0kts
21-May-20 15:15 33.675427 -117.871342 40 60ft 0kts
21-May-20 15:16 33.675427 -117.871342 40 60ft 0kts
21-May-20 15:17 33.675427 -117.871342 40 60ft 0kts
21-May-20 15:18 33.675427 -117.871342 40 60ft 0kts
21-May-20 15:19 33.675427 -117.871342 40 60ft 0kts
21-May-20 15:20 33.675427 -117.871342 40 60ft 0kts
21-May-20 15:21 33.675427 -117.871342 40 60ft 0kts
21-May-20 15:22 33.675427 -117.871342 40 60ft 0kts
21-May-20 15:23 33.675427 -117.871342 40 60ft 0kts
21-May-20 15:24 33.675427 -117.871342 40 60ft 0kts
21-May-20 15:25 33.675427 -117.871342 40 60ft 0kts
21-May-20 15:26 33.675427 -117.871342 40 60ft 0kts
21-May-20 15:27 33.675427 -117.871342 40 60ft 0kts
21-May-20 15:28 33.675427 -117.871342 40 60ft 0kts
21-May-20 15:29 33.675427 -117.871342 40 60ft 0kts
21-May-20 15:30 33.675427 -117.871342 40 60ft 0kts
21-May-20 15:31 33.675427 -117.871342 40 60ft 0kts
21-May-20 15:32 33.675427 -117.871342 40 60ft 0kts
21-May-20 15:33 33.675427 -117.871342 40 60ft 0kts
21-May-20 15:34 33.675427 -117.871342 40 60ft 0kts
21-May-20 15:35 33.675427 -117.871342 40 60ft 0kts
21-May-20 15:36 33.675427 -117.871342 40 60ft 0kts
21-May-20 15:37 33.675427 -117.871342 40 60ft 0kts
21-May-20 15:38 33.675427 -117.871342 40 60ft 0kts
21-May-20 15:39 33.675427 -117.871342 40 60ft 0kts
21-May-20 15:40 33.675427 -117.871342 40 60ft 0kts
21-May-20 15:41 33.675427 -117.871342 40 60ft 0kts
21-May-20 15:42 33.675427 -117.871342 40 60ft 0kts
21-May-20 15:43 33.675427 -117.871342 40 60ft 0kts
21-May-20 15:44 33.675427 -117.871342 40 60ft 0kts
21-May-20 15:45 33.675427 -117.871342 40 60ft 0kts
21-May-20 15:46 33.675427 -117.871342 40 60ft 0kts
21-May-20 15:47 33.676022 -117.870141 24 60ft 14kts
21-May-20 15:48 33.680974 -117.867176 27 60ft 17kts
21-May-20 15:49 33.681245 -117.866523 98 60ft 0kts
21-May-20 15:50 33.681089 -117.866095 117 60ft 10kts
21-May-20 15:51 33.668313 -117.873394 206 165ft 127kts
21-May-20 15:52 33.641960 -117.903580 231 1450ft 134kts
21-May-20 15:53 33.618550 -117.934234 229 2993ft 117kts
21-May-20 15:54 33.628544 -117.967104 318 4065ft 123kts
21-May-20 15:55 33.661106 -117.979614 324 5139ft 124kts
21-May-20 15:57 33.686822 -118.005782 329 6190ft 121kts
21-May-20 15:58 33.715639 -118.026028 334 7186ft 119kts
21-May-20 15:59 33.747706 -118.040793 339 8010ft 128kts
21-May-20 16:00 33.781188 -118.057240 339 8821ft 132kts
21-May-20 16:01 33.813809 -118.060540 60 9551ft 123kts
21-May-20 16:02 33.813615 -118.021550 100 10270ft 119kts
21-May-20 16:03 33.804129 -117.983635 89 10895ft 120kts
21-May-20 16:04 33.815547 -117.943210 68 11138ft 143kts
21-May-20 16:05 33.830899 -117.895330 70 11122ft 160kts
21-May-20 16:06 33.844476 -117.843451 75 11095ft 163kts
21-May-20 16:07 33.850787 -117.789081 75 11070ft 164kts
21-May-20 16:08 33.865147 -117.737062 72 11070ft 164kts
21-May-20 16:09 33.878515 -117.685885 73 11090ft 158kts
21-May-20 16:10 33.891589 -117.634668 72 11094ft 162kts
21-May-20 16:11 33.904937 -117.582608 72 11088ft 163kts
21-May-20 16:12 33.921900 -117.532655 37 11065ft 163kts
21-May-20 16:13 33.961012 -117.505135 28 11093ft 163kts
21-May-20 16:13 33.995148 -117.484142 28 11092ft 166kts
21-May-20 16:15 34.043593 -117.454915 28 11094ft 167kts
21-May-20 16:15 34.078198 -117.434103 28 11097ft 167kts
21-May-20 16:16 34.119923 -117.408998 28 11098ft 167kts
21-May-20 16:18 34.168636 -117.379655 28 11098ft 167kts
21-May-20 16:18 34.203345 -117.358723 28 11097ft 167kts
21-May-20 16:19 34.245146 -117.333486 29 11100ft 168kts
21-May-20 16:20 34.286883 -117.308261 29 11116ft 168kts
21-May-20 16:21 34.328542 -117.283053 29 11128ft 168kts
21-May-20 16:22 34.370527 -117.257621 29 11134ft 168kts
21-May-20 16:23 34.412503 -117.232166 29 11137ft 169kts
21-May-20 16:24 34.454425 -117.206716 29 11141ft 169kts
21-May-20 16:25 34.496347 -117.181240 29 11143ft 169kts
21-May-20 16:26 34.538797 -117.155385 30 11102ft 170kts
21-May-20 16:27 34.562920 -117.108168 65 11105ft 166kts
21-May-20 16:28 34.582258 -117.056866 67 11093ft 168kts
21-May-20 16:29 34.601471 -117.004351 68 11086ft 171kts
21-May-20 16:30 34.620856 -116.951068 67 11078ft 173kts
21-May-20 16:31 34.640288 -116.897574 66 11114ft 174kts
21-May-20 16:32 34.659926 -116.843479 66 11108ft 175kts
21-May-20 16:33 34.679572 -116.789249 66 11108ft 176kts
21-May-20 16:34 34.699253 -116.734812 66 11108ft 176kts
21-May-20 16:35 34.718925 -116.680306 66 11108ft 176kts
21-May-20 16:36 34.738551 -116.625831 66 11108ft 176kts
21-May-20 16:37 34.758150 -116.571339 66 11108ft 176kts
21-May-20 16:38 34.777729 -116.516809 66 11108ft 176kts
21-May-20 16:39 34.798486 -116.462977 51 11096ft 176kts
21-May-20 16:40 34.831193 -116.418577 46 11107ft 175kts
21-May-20 16:41 34.864254 -116.375253 46 11112ft 174kts
21-May-20 16:42 34.897234 -116.332140 47 11124ft 173kts
21-May-20 16:43 34.929975 -116.289243 47 11133ft 173kts
21-May-20 16:44 34.962870 -116.246126 46 11139ft 174kts
21-May-20 16:45 34.995822 -116.202888 46 11137ft 174kts
21-May-20 16:46 35.028767 -116.159605 46 11131ft 174kts
21-May-20 16:47 35.061365 -116.116727 46 11125ft 173kts
21-May-20 16:48 35.094447 -116.073147 46 11099ft 178kts
21-May-20 16:49 35.129108 -116.027412 46 10552ft 184kts
21-May-20 16:50 35.163923 -115.981437 46 10042ft 180kts
21-May-20 16:51 35.197496 -115.937036 46 10053ft 176kts
21-May-20 16:52 35.230822 -115.892910 46 10053ft 176kts
21-May-20 16:53 35.263831 -115.849102 46 10065ft 174kts
21-May-20 16:54 35.296560 -115.805673 46 10048ft 172kts
21-May-20 16:55 35.329056 -115.762542 46 10050ft 172kts
21-May-20 16:56 35.361701 -115.719166 46 10049ft 173kts
21-May-20 16:57 35.394268 -115.675729 46 10048ft 173kts
21-May-20 16:58 35.426976 -115.632037 46 10045ft 173kts
21-May-20 16:59 35.459619 -115.588380 46 10045ft 173kts
21-May-20 17:00 35.492248 -115.544688 46 10045ft 173kts
21-May-20 17:01 35.524885 -115.500944 46 10045ft 173kts
21-May-20 17:02 35.557459 -115.457245 46 10045ft 173kts
21-May-20 17:03 35.590047 -115.413471 46 10045ft 173kts
21-May-20 17:04 35.622677 -115.369580 46 10045ft 173kts
21-May-20 17:05 35.655203 -115.325759 47 10045ft 173kts
21-May-20 17:06 35.687777 -115.281832 47 10062ft 173kts
21-May-20 17:07 35.720197 -115.238056 47 10065ft 173kts
21-May-20 17:08 35.752879 -115.193866 47 10058ft 175kts
21-May-20 17:09 35.801001 -115.175116 10 9338ft 189kts
21-May-20 17:10 35.849607 -115.162167 10 7895ft 172kts
21-May-20 17:11 35.895148 -115.149983 10 6468ft 165kts
21-May-20 17:12 35.936542 -115.138753 10 6032ft 138kts
21-May-20 17:13 35.972027 -115.128933 10 6033ft 125kts
21-May-20 17:14 36.005995 -115.118046 13 5411ft 137kts
21-May-20 17:15 36.041613 -115.102907 22 4737ft 132kts
21-May-20 17:16 36.074048 -115.083555 21 3945ft 124kts
21-May-20 17:17 36.105638 -115.067434 16 3573ft 125kts
21-May-20 17:18 36.131308 -115.077575 290 3422ft 122kts
21-May-20 17:19 36.140925 -115.113766 284 3267ft 105kts
21-May-20 17:20 36.125502 -115.141539 206 2890ft 118kts
21-May-20 17:21 36.098469 -115.157018 208 2126ft 86kts
21-May-20 17:22 36.089368 -115.163454 290 2128ft 1kts
21-May-20 17:23 36.089501 -115.163848 294 2130ft 8kts
21-May-20 17:24 36.089438 -115.166994 268 2141ft 9kts
21-May-20 17:25 36.089438 -115.167024 268 2141ft 0kts

Navigation Log

Ident Type
Flight plan parsing failed, navigation log unavailable